sensor_id;sensor_type;location;lat;lon;timestamp;temperature;humidity
56103;DHT22;41970;48.774;9.280;2022-11-20T00:01:09;7.30;99.90
56103;DHT22;41970;48.774;9.280;2022-11-20T00:03:35;7.40;99.90
56103;DHT22;41970;48.774;9.280;2022-11-20T00:06:06;7.40;99.90
56103;DHT22;41970;48.774;9.280;2022-11-20T00:08:33;7.30;99.90
56103;DHT22;41970;48.774;9.280;2022-11-20T00:11:19;7.30;99.90
56103;DHT22;41970;48.774;9.280;2022-11-20T00:13:46;7.30;99.90
56103;DHT22;41970;48.774;9.280;2022-11-20T00:16:14;7.30;99.90
56103;DHT22;41970;48.774;9.280;2022-11-20T00:18:40;7.30;99.90
56103;DHT22;41970;48.774;9.280;2022-11-20T00:21:13;7.20;99.90
56103;DHT22;41970;48.774;9.280;2022-11-20T00:23:39;7.20;99.90
56103;DHT22;41970;48.774;9.280;2022-11-20T00:26:12;7.20;99.90
56103;DHT22;41970;48.774;9.280;2022-11-20T00:28:38;7.30;99.90
56103;DHT22;41970;48.774;9.280;2022-11-20T00:31:10;7.40;99.90
56103;DHT22;41970;48.774;9.280;2022-11-20T00:33:36;7.40;99.90
56103;DHT22;41970;48.774;9.280;2022-11-20T00:36:08;7.50;99.90
56103;DHT22;41970;48.774;9.280;2022-11-20T00:38:35;7.40;99.90
56103;DHT22;41970;48.774;9.280;2022-11-20T00:41:03;7.30;99.90
56103;DHT22;41970;48.774;9.280;2022-11-20T00:43:29;7.30;99.90
56103;DHT22;41970;48.774;9.280;2022-11-20T00:46:04;7.30;99.90
56103;DHT22;41970;48.774;9.280;2022-11-20T00:48:30;7.30;99.90
56103;DHT22;41970;48.774;9.280;2022-11-20T00:50:57;7.40;99.90
56103;DHT22;41970;48.774;9.280;2022-11-20T00:53:23;7.40;99.90
56103;DHT22;41970;48.774;9.280;2022-11-20T00:55:57;7.30;99.90
56103;DHT22;41970;48.774;9.280;2022-11-20T00:58:24;7.40;99.90
56103;DHT22;41970;48.774;9.280;2022-11-20T01:00:50;7.30;99.90
56103;DHT22;41970;48.774;9.280;2022-11-20T01:03:18;7.30;99.90
56103;DHT22;41970;48.774;9.280;2022-11-20T01:05:44;7.50;99.90
56103;DHT22;41970;48.774;9.280;2022-11-20T01:08:10;7.50;99.90
56103;DHT22;41970;48.774;9.280;2022-11-20T01:10:36;7.40;99.90
56103;DHT22;41970;48.774;9.280;2022-11-20T01:13:02;7.40;99.90
56103;DHT22;41970;48.774;9.280;2022-11-20T01:15:47;7.50;99.90
56103;DHT22;41970;48.774;9.280;2022-11-20T01:18:12;7.60;99.90
56103;DHT22;41970;48.774;9.280;2022-11-20T01:20:38;7.70;99.90
56103;DHT22;41970;48.774;9.280;2022-11-20T01:23:04;7.70;99.90
56103;DHT22;41970;48.774;9.280;2022-11-20T01:25:30;7.60;99.90
56103;DHT22;41970;48.774;9.280;2022-11-20T01:27:56;7.50;99.90
56103;DHT22;41970;48.774;9.280;2022-11-20T01:30:22;7.50;99.90
56103;DHT22;41970;48.774;9.280;2022-11-20T01:32:47;7.50;99.90
56103;DHT22;41970;48.774;9.280;2022-11-20T01:35:13;7.60;99.90
56103;DHT22;41970;48.774;9.280;2022-11-20T01:37:39;7.60;99.90
56103;DHT22;41970;48.774;9.280;2022-11-20T01:40:05;7.60;99.90
56103;DHT22;41970;48.774;9.280;2022-11-20T01:42:31;7.60;99.90
56103;DHT22;41970;48.774;9.280;2022-11-20T01:48:13;7.40;99.90
56103;DHT22;41970;48.774;9.280;2022-11-20T01:50:40;7.40;99.90
56103;DHT22;41970;48.774;9.280;2022-11-20T01:53:11;7.50;99.90
56103;DHT22;41970;48.774;9.280;2022-11-20T01:55:45;7.50;99.90
56103;DHT22;41970;48.774;9.280;2022-11-20T01:58:13;7.60;99.90
56103;DHT22;41970;48.774;9.280;2022-11-20T02:00:40;7.40;99.90
56103;DHT22;41970;48.774;9.280;2022-11-20T02:03:09;7.10;99.90
56103;DHT22;41970;48.774;9.280;2022-11-20T02:05:45;7.20;99.90
56103;DHT22;41970;48.774;9.280;2022-11-20T02:08:12;7.30;99.90
56103;DHT22;41970;48.774;9.280;2022-11-20T02:10:39;7.10;99.90
56103;DHT22;41970;48.774;9.280;2022-11-20T02:13:05;6.90;99.90
56103;DHT22;41970;48.774;9.280;2022-11-20T02:15:50;6.80;99.90
56103;DHT22;41970;48.774;9.280;2022-11-20T02:18:18;6.90;99.90
56103;DHT22;41970;48.774;9.280;2022-11-20T02:20:47;6.70;99.90
56103;DHT22;41970;48.774;9.280;2022-11-20T02:26:12;6.80;99.90
56103;DHT22;41970;48.774;9.280;2022-11-20T02:28:40;6.90;99.90
56103;DHT22;41970;48.774;9.280;2022-11-20T02:31:06;7.00;99.90
56103;DHT22;41970;48.774;9.280;2022-11-20T02:33:31;7.00;99.90
56103;DHT22;41970;48.774;9.280;2022-11-20T02:35:58;7.10;99.90
56103;DHT22;41970;48.774;9.280;2022-11-20T02:38:24;7.10;99.90
56103;DHT22;41970;48.774;9.280;2022-11-20T02:40:50;7.20;99.90
56103;DHT22;41970;48.774;9.280;2022-11-20T02:43:16;7.30;99.90
56103;DHT22;41970;48.774;9.280;2022-11-20T02:45:42;7.20;99.90
56103;DHT22;41970;48.774;9.280;2022-11-20T02:48:08;7.30;99.90
56103;DHT22;41970;48.774;9.280;2022-11-20T02:50:37;7.00;99.90
56103;DHT22;41970;48.774;9.280;2022-11-20T02:53:03;7.20;99.90
56103;DHT22;41970;48.774;9.280;2022-11-20T02:55:29;7.20;99.90
56103;DHT22;41970;48.774;9.280;2022-11-20T02:57:54;7.10;99.90
56103;DHT22;41970;48.774;9.280;2022-11-20T03:00:21;6.90;99.90
56103;DHT22;41970;48.774;9.280;2022-11-20T03:02:47;7.00;99.90
56103;DHT22;41970;48.774;9.280;2022-11-20T03:05:13;7.10;99.90
56103;DHT22;41970;48.774;9.280;2022-11-20T03:07:39;7.10;99.90
56103;DHT22;41970;48.774;9.280;2022-11-20T03:10:05;7.10;99.90
56103;DHT22;41970;48.774;9.280;2022-11-20T03:12:31;7.30;99.90
56103;DHT22;41970;48.774;9.280;2022-11-20T03:15:00;7.40;99.90
56103;DHT22;41970;48.774;9.280;2022-11-20T03:17:26;7.40;99.90
56103;DHT22;41970;48.774;9.280;2022-11-20T03:19:52;7.50;99.90
56103;DHT22;41970;48.774;9.280;2022-11-20T03:22:18;7.60;99.90
56103;DHT22;41970;48.774;9.280;2022-11-20T03:24:43;7.50;99.90
56103;DHT22;41970;48.774;9.280;2022-11-20T03:27:09;7.50;99.90
56103;DHT22;41970;48.774;9.280;2022-11-20T03:29:35;7.50;99.90
56103;DHT22;41970;48.774;9.280;2022-11-20T03:32:01;7.50;99.90
56103;DHT22;41970;48.774;9.280;2022-11-20T03:34:27;7.40;99.90
56103;DHT22;41970;48.774;9.280;2022-11-20T03:36:53;7.20;99.90
56103;DHT22;41970;48.774;9.280;2022-11-20T03:39:18;7.00;99.90
56103;DHT22;41970;48.774;9.280;2022-11-20T03:41:44;7.00;99.90
56103;DHT22;41970;48.774;9.280;2022-11-20T03:44:11;6.80;99.90
56103;DHT22;41970;48.774;9.280;2022-11-20T03:46:37;6.80;99.90
56103;DHT22;41970;48.774;9.280;2022-11-20T03:49:04;6.80;99.90
56103;DHT22;41970;48.774;9.280;2022-11-20T03:51:32;6.80;99.90
56103;DHT22;41970;48.774;9.280;2022-11-20T03:54:00;6.80;99.90
56103;DHT22;41970;48.774;9.280;2022-11-20T03:56:29;7.00;99.90
56103;DHT22;41970;48.774;9.280;2022-11-20T03:58:56;7.10;99.90
56103;DHT22;41970;48.774;9.280;2022-11-20T04:01:24;7.00;99.90
56103;DHT22;41970;48.774;9.280;2022-11-20T04:03:52;7.00;99.90
56103;DHT22;41970;48.774;9.280;2022-11-20T04:06:21;7.00;99.90
56103;DHT22;41970;48.774;9.280;2022-11-20T04:08:47;7.10;99.90
56103;DHT22;41970;48.774;9.280;2022-11-20T04:11:19;7.10;99.90
56103;DHT22;41970;48.774;9.280;2022-11-20T04:13:53;7.20;99.90
56103;DHT22;41970;48.774;9.280;2022-11-20T04:16:20;7.20;99.90
56103;DHT22;41970;48.774;9.280;2022-11-20T04:18:46;7.30;99.90
56103;DHT22;41970;48.774;9.280;2022-11-20T04:21:12;7.30;99.90
56103;DHT22;41970;48.774;9.280;2022-11-20T04:23:38;7.30;99.90
56103;DHT22;41970;48.774;9.280;2022-11-20T04:26:11;7.40;99.90
56103;DHT22;41970;48.774;9.280;2022-11-20T04:28:37;7.40;99.90
56103;DHT22;41970;48.774;9.280;2022-11-20T04:33:29;7.20;99.90
56103;DHT22;41970;48.774;9.280;2022-11-20T04:36:03;7.00;99.90
56103;DHT22;41970;48.774;9.280;2022-11-20T04:38:29;7.00;99.90
56103;DHT22;41970;48.774;9.280;2022-11-20T04:41:03;7.10;99.90
56103;DHT22;41970;48.774;9.280;2022-11-20T04:43:29;7.20;99.90
56103;DHT22;41970;48.774;9.280;2022-11-20T04:45:56;7.20;99.90
56103;DHT22;41970;48.774;9.280;2022-11-20T04:48:22;7.30;99.90
56103;DHT22;41970;48.774;9.280;2022-11-20T04:50:48;7.20;99.90
56103;DHT22;41970;48.774;9.280;2022-11-20T04:53:14;7.30;99.90
56103;DHT22;41970;48.774;9.280;2022-11-20T04:55:40;7.20;99.90
56103;DHT22;41970;48.774;9.280;2022-11-20T04:58:06;7.30;99.90
56103;DHT22;41970;48.774;9.280;2022-11-20T05:00:32;7.30;99.90
56103;DHT22;41970;48.774;9.280;2022-11-20T05:02:58;7.30;99.90
56103;DHT22;41970;48.774;9.280;2022-11-20T05:05:24;7.30;99.90
56103;DHT22;41970;48.774;9.280;2022-11-20T05:07:50;7.20;99.90
56103;DHT22;41970;48.774;9.280;2022-11-20T05:10:15;7.00;99.90
56103;DHT22;41970;48.774;9.280;2022-11-20T05:12:41;6.90;99.90
56103;DHT22;41970;48.774;9.280;2022-11-20T05:15:07;6.80;99.90
56103;DHT22;41970;48.774;9.280;2022-11-20T05:17:33;6.70;99.90
56103;DHT22;41970;48.774;9.280;2022-11-20T05:19:59;6.50;99.90
56103;DHT22;41970;48.774;9.280;2022-11-20T05:22:25;6.50;99.90
56103;DHT22;41970;48.774;9.280;2022-11-20T05:24:51;6.40;99.90
56103;DHT22;41970;48.774;9.280;2022-11-20T05:27:17;6.50;99.90
56103;DHT22;41970;48.774;9.280;2022-11-20T05:29:43;6.60;99.90
56103;DHT22;41970;48.774;9.280;2022-11-20T05:32:09;6.80;99.90
56103;DHT22;41970;48.774;9.280;2022-11-20T05:34:35;6.90;99.90
56103;DHT22;41970;48.774;9.280;2022-11-20T05:37:02;6.90;99.90
56103;DHT22;41970;48.774;9.280;2022-11-20T05:39:28;6.90;99.90
56103;DHT22;41970;48.774;9.280;2022-11-20T05:41:54;6.90;99.90
56103;DHT22;41970;48.774;9.280;2022-11-20T05:44:39;6.90;99.90
56103;DHT22;41970;48.774;9.280;2022-11-20T05:47:05;6.90;99.90
56103;DHT22;41970;48.774;9.280;2022-11-20T05:49:31;7.00;99.90
56103;DHT22;41970;48.774;9.280;2022-11-20T05:51:57;7.20;99.90
56103;DHT22;41970;48.774;9.280;2022-11-20T05:54:23;7.10;99.90
56103;DHT22;41970;48.774;9.280;2022-11-20T05:56:49;7.10;99.90
56103;DHT22;41970;48.774;9.280;2022-11-20T05:59:15;7.10;99.90
56103;DHT22;41970;48.774;9.280;2022-11-20T06:01:41;7.30;99.90
56103;DHT22;41970;48.774;9.280;2022-11-20T06:04:07;7.40;99.90
56103;DHT22;41970;48.774;9.280;2022-11-20T06:06:32;7.50;99.90
56103;DHT22;41970;48.774;9.280;2022-11-20T06:08:58;7.50;99.90
56103;DHT22;41970;48.774;9.280;2022-11-20T06:11:24;7.50;99.90
56103;DHT22;41970;48.774;9.280;2022-11-20T06:13:50;7.40;99.90
56103;DHT22;41970;48.774;9.280;2022-11-20T06:16:19;7.40;99.90
56103;DHT22;41970;48.774;9.280;2022-11-20T06:18:45;7.50;99.90
56103;DHT22;41970;48.774;9.280;2022-11-20T06:21:14;7.50;99.90
56103;DHT22;41970;48.774;9.280;2022-11-20T06:23:40;7.40;99.90
56103;DHT22;41970;48.774;9.280;2022-11-20T06:26:14;7.30;99.90
56103;DHT22;41970;48.774;9.280;2022-11-20T06:28:41;7.40;99.90
56103;DHT22;41970;48.774;9.280;2022-11-20T06:31:10;7.40;99.90
56103;DHT22;41970;48.774;9.280;2022-11-20T06:33:36;7.50;99.90
56103;DHT22;41970;48.774;9.280;2022-11-20T06:36:03;7.50;99.90
56103;DHT22;41970;48.774;9.280;2022-11-20T06:38:29;7.50;99.90
56103;DHT22;41970;48.774;9.280;2022-11-20T06:40:55;7.40;99.90
56103;DHT22;41970;48.774;9.280;2022-11-20T06:43:22;7.20;99.90
56103;DHT22;41970;48.774;9.280;2022-11-20T06:45:56;7.00;99.90
56103;DHT22;41970;48.774;9.280;2022-11-20T06:48:23;7.00;99.90
56103;DHT22;41970;48.774;9.280;2022-11-20T06:50:49;6.90;99.90
56103;DHT22;41970;48.774;9.280;2022-11-20T06:53:15;7.10;99.90
56103;DHT22;41970;48.774;9.280;2022-11-20T06:55:48;7.00;99.90
56103;DHT22;41970;48.774;9.280;2022-11-20T06:58:15;6.90;99.90
56103;DHT22;41970;48.774;9.280;2022-11-20T07:00:41;6.70;99.90
56103;DHT22;41970;48.774;9.280;2022-11-20T07:03:08;6.50;99.90
56103;DHT22;41970;48.774;9.280;2022-11-20T07:05:35;6.50;99.90
56103;DHT22;41970;48.774;9.280;2022-11-20T07:08:02;6.40;99.90
56103;DHT22;41970;48.774;9.280;2022-11-20T07:10:28;6.40;99.90
56103;DHT22;41970;48.774;9.280;2022-11-20T07:12:54;6.50;99.90
56103;DHT22;41970;48.774;9.280;2022-11-20T07:15:22;6.60;99.90
56103;DHT22;41970;48.774;9.280;2022-11-20T07:17:48;6.60;99.90
56103;DHT22;41970;48.774;9.280;2022-11-20T07:20:15;6.50;99.90
56103;DHT22;41970;48.774;9.280;2022-11-20T07:22:41;6.40;99.90
56103;DHT22;41970;48.774;9.280;2022-11-20T07:25:08;6.40;99.90
56103;DHT22;41970;48.774;9.280;2022-11-20T07:27:34;6.40;99.90
56103;DHT22;41970;48.774;9.280;2022-11-20T07:30:00;6.40;99.90
56103;DHT22;41970;48.774;9.280;2022-11-20T07:32:26;6.50;99.90
56103;DHT22;41970;48.774;9.280;2022-11-20T07:34:52;6.50;99.90
56103;DHT22;41970;48.774;9.280;2022-11-20T07:37:18;6.50;99.90
56103;DHT22;41970;48.774;9.280;2022-11-20T07:39:44;6.60;99.90
56103;DHT22;41970;48.774;9.280;2022-11-20T07:42:10;6.60;99.90
56103;DHT22;41970;48.774;9.280;2022-11-20T07:44:38;6.80;99.90
56103;DHT22;41970;48.774;9.280;2022-11-20T07:47:04;6.90;99.90
56103;DHT22;41970;48.774;9.280;2022-11-20T07:49:32;6.90;99.90
56103;DHT22;41970;48.774;9.280;2022-11-20T07:51:58;7.10;99.90
56103;DHT22;41970;48.774;9.280;2022-11-20T07:54:24;7.00;99.90
56103;DHT22;41970;48.774;9.280;2022-11-20T07:56:50;6.80;99.90
56103;DHT22;41970;48.774;9.280;2022-11-20T07:59:16;6.90;99.90
56103;DHT22;41970;48.774;9.280;2022-11-20T08:01:42;7.00;99.90
56103;DHT22;41970;48.774;9.280;2022-11-20T08:04:09;7.10;99.90
56103;DHT22;41970;48.774;9.280;2022-11-20T08:06:36;7.20;99.90
56103;DHT22;41970;48.774;9.280;2022-11-20T08:09:03;7.20;99.90
56103;DHT22;41970;48.774;9.280;2022-11-20T08:11:30;7.30;99.90
56103;DHT22;41970;48.774;9.280;2022-11-20T08:14:14;7.50;99.90
56103;DHT22;41970;48.774;9.280;2022-11-20T08:16:46;7.60;99.90
56103;DHT22;41970;48.774;9.280;2022-11-20T08:19:17;7.70;99.90
56103;DHT22;41970;48.774;9.280;2022-11-20T08:21:43;7.70;99.90
56103;DHT22;41970;48.774;9.280;2022-11-20T08:24:10;7.80;99.90
56103;DHT22;41970;48.774;9.280;2022-11-20T08:26:37;7.70;99.90
56103;DHT22;41970;48.774;9.280;2022-11-20T08:29:04;7.80;99.90
56103;DHT22;41970;48.774;9.280;2022-11-20T08:31:30;7.90;99.90
56103;DHT22;41970;48.774;9.280;2022-11-20T08:33:56;7.80;99.90
56103;DHT22;41970;48.774;9.280;2022-11-20T08:36:23;7.90;99.90
56103;DHT22;41970;48.774;9.280;2022-11-20T08:38:51;8.00;99.90
56103;DHT22;41970;48.774;9.280;2022-11-20T08:41:17;8.10;99.90
56103;DHT22;41970;48.774;9.280;2022-11-20T08:44:00;8.00;99.90
56103;DHT22;41970;48.774;9.280;2022-11-20T08:46:33;7.90;99.90
56103;DHT22;41970;48.774;9.280;2022-11-20T08:48:59;7.90;99.90
56103;DHT22;41970;48.774;9.280;2022-11-20T08:51:25;8.00;99.90
56103;DHT22;41970;48.774;9.280;2022-11-20T08:53:51;8.10;99.90
56103;DHT22;41970;48.774;9.280;2022-11-20T08:56:17;8.10;99.90
56103;DHT22;41970;48.774;9.280;2022-11-20T08:58:43;8.20;99.90
56103;DHT22;41970;48.774;9.280;2022-11-20T09:01:09;8.20;99.90
56103;DHT22;41970;48.774;9.280;2022-11-20T09:03:35;8.30;99.90
56103;DHT22;41970;48.774;9.280;2022-11-20T09:06:04;8.30;99.90
56103;DHT22;41970;48.774;9.280;2022-11-20T09:08:30;8.20;99.90
56103;DHT22;41970;48.774;9.280;2022-11-20T09:10:57;8.30;99.90
56103;DHT22;41970;48.774;9.280;2022-11-20T09:13:24;8.40;99.90
56103;DHT22;41970;48.774;9.280;2022-11-20T09:15:59;8.50;99.90
56103;DHT22;41970;48.774;9.280;2022-11-20T09:18:26;8.30;99.90
56103;DHT22;41970;48.774;9.280;2022-11-20T09:20:56;8.40;99.90
56103;DHT22;41970;48.774;9.280;2022-11-20T09:23:23;8.50;99.90
56103;DHT22;41970;48.774;9.280;2022-11-20T09:25:49;8.60;99.90
56103;DHT22;41970;48.774;9.280;2022-11-20T09:28:15;8.60;99.90
56103;DHT22;41970;48.774;9.280;2022-11-20T09:30:42;8.60;99.90
56103;DHT22;41970;48.774;9.280;2022-11-20T09:33:08;8.70;99.90
56103;DHT22;41970;48.774;9.280;2022-11-20T09:35:34;8.70;99.90
56103;DHT22;41970;48.774;9.280;2022-11-20T09:38:07;8.60;99.90
56103;DHT22;41970;48.774;9.280;2022-11-20T09:40:36;8.60;99.90
56103;DHT22;41970;48.774;9.280;2022-11-20T09:43:28;8.70;99.90
56103;DHT22;41970;48.774;9.280;2022-11-20T09:49:07;8.70;99.90
56103;DHT22;41970;48.774;9.280;2022-11-20T09:54:25;8.80;99.90
56103;DHT22;41970;48.774;9.280;2022-11-20T09:56:59;8.70;99.90
56103;DHT22;41970;48.774;9.280;2022-11-20T09:59:41;8.60;99.90
56103;DHT22;41970;48.774;9.280;2022-11-20T10:05:02;8.60;99.90
56103;DHT22;41970;48.774;9.280;2022-11-20T10:07:43;8.70;99.90
56103;DHT22;41970;48.774;9.280;2022-11-20T10:11:04;8.70;99.90
56103;DHT22;41970;48.774;9.280;2022-11-20T10:15:58;8.60;99.90
56103;DHT22;41970;48.774;9.280;2022-11-20T10:21:34;8.70;99.90
56103;DHT22;41970;48.774;9.280;2022-11-20T10:29:33;8.70;99.90
56103;DHT22;41970;48.774;9.280;2022-11-20T10:32:14;8.70;99.90
56103;DHT22;41970;48.774;9.280;2022-11-20T10:34:58;8.60;99.90
56103;DHT22;41970;48.774;9.280;2022-11-20T10:37:27;8.60;99.90
56103;DHT22;41970;48.774;9.280;2022-11-20T10:40:17;8.60;99.90
56103;DHT22;41970;48.774;9.280;2022-11-20T10:42:52;8.60;99.90
56103;DHT22;41970;48.774;9.280;2022-11-20T10:45:36;8.50;99.90
56103;DHT22;41970;48.774;9.280;2022-11-20T10:48:14;8.30;99.90
56103;DHT22;41970;48.774;9.280;2022-11-20T10:50:55;8.40;99.90
56103;DHT22;41970;48.774;9.280;2022-11-20T10:53:47;8.50;99.90
56103;DHT22;41970;48.774;9.280;2022-11-20T10:56:20;8.50;99.90
56103;DHT22;41970;48.774;9.280;2022-11-20T11:01:25;8.40;99.90
56103;DHT22;41970;48.774;9.280;2022-11-20T11:03:54;8.50;99.90
56103;DHT22;41970;48.774;9.280;2022-11-20T11:06:42;8.50;99.90
56103;DHT22;41970;48.774;9.280;2022-11-20T11:09:37;8.40;99.90
56103;DHT22;41970;48.774;9.280;2022-11-20T11:12:00;8.40;99.90
56103;DHT22;41970;48.774;9.280;2022-11-20T11:14:26;8.40;99.90
56103;DHT22;41970;48.774;9.280;2022-11-20T11:16:57;8.50;99.90
56103;DHT22;41970;48.774;9.280;2022-11-20T11:19:23;8.60;99.90
56103;DHT22;41970;48.774;9.280;2022-11-20T11:21:56;8.60;99.90
56103;DHT22;41970;48.774;9.280;2022-11-20T11:24:28;8.70;99.90
56103;DHT22;41970;48.774;9.280;2022-11-20T11:26:59;8.70;99.90
56103;DHT22;41970;48.774;9.280;2022-11-20T11:29:30;8.60;99.90
56103;DHT22;41970;48.774;9.280;2022-11-20T11:32:05;8.60;99.90
56103;DHT22;41970;48.774;9.280;2022-11-20T11:34:31;8.60;99.90
56103;DHT22;41970;48.774;9.280;2022-11-20T11:36:58;8.70;99.90
56103;DHT22;41970;48.774;9.280;2022-11-20T11:39:26;8.70;99.90
56103;DHT22;41970;48.774;9.280;2022-11-20T11:41:52;8.70;99.90
56103;DHT22;41970;48.774;9.280;2022-11-20T11:44:21;8.70;99.90
56103;DHT22;41970;48.774;9.280;2022-11-20T11:47:11;8.80;99.90
56103;DHT22;41970;48.774;9.280;2022-11-20T11:49:41;8.80;99.90
56103;DHT22;41970;48.774;9.280;2022-11-20T11:52:20;8.90;99.90
56103;DHT22;41970;48.774;9.280;2022-11-20T11:55:07;9.00;99.90
56103;DHT22;41970;48.774;9.280;2022-11-20T12:00:16;9.00;99.90
56103;DHT22;41970;48.774;9.280;2022-11-20T12:02:49;8.80;99.90
56103;DHT22;41970;48.774;9.280;2022-11-20T12:05:27;8.90;99.90
56103;DHT22;41970;48.774;9.280;2022-11-20T12:08:05;8.90;99.90
56103;DHT22;41970;48.774;9.280;2022-11-20T12:16:02;9.20;99.90
56103;DHT22;41970;48.774;9.280;2022-11-20T12:18:28;9.20;99.90
56103;DHT22;41970;48.774;9.280;2022-11-20T12:23:52;9.20;99.90
56103;DHT22;41970;48.774;9.280;2022-11-20T12:26:34;9.10;99.90
56103;DHT22;41970;48.774;9.280;2022-11-20T12:29:17;9.20;99.90
56103;DHT22;41970;48.774;9.280;2022-11-20T12:32:14;9.30;99.90
56103;DHT22;41970;48.774;9.280;2022-11-20T12:40:21;9.50;99.90
56103;DHT22;41970;48.774;9.280;2022-11-20T12:49:18;9.90;99.90
56103;DHT22;41970;48.774;9.280;2022-11-20T12:55:16;9.90;99.90
56103;DHT22;41970;48.774;9.280;2022-11-20T12:58:00;10.00;99.90
56103;DHT22;41970;48.774;9.280;2022-11-20T13:00:31;10.00;99.90
56103;DHT22;41970;48.774;9.280;2022-11-20T13:04:00;10.00;99.90
56103;DHT22;41970;48.774;9.280;2022-11-20T13:06:16;10.00;99.90
56103;DHT22;41970;48.774;9.280;2022-11-20T13:08:54;10.10;99.90
56103;DHT22;41970;48.774;9.280;2022-11-20T13:12:01;10.20;99.90
56103;DHT22;41970;48.774;9.280;2022-11-20T13:17:21;10.10;99.90
56103;DHT22;41970;48.774;9.280;2022-11-20T13:19:54;10.20;99.90
56103;DHT22;41970;48.774;9.280;2022-11-20T13:25:10;10.20;99.90
56103;DHT22;41970;48.774;9.280;2022-11-20T13:27:47;10.20;99.90
56103;DHT22;41970;48.774;9.280;2022-11-20T13:30:15;10.20;99.90
56103;DHT22;41970;48.774;9.280;2022-11-20T13:32:54;10.20;99.90
56103;DHT22;41970;48.774;9.280;2022-11-20T13:35:30;10.20;99.90
56103;DHT22;41970;48.774;9.280;2022-11-20T13:40:26;10.10;99.90
56103;DHT22;41970;48.774;9.280;2022-11-20T13:43:17;10.00;99.90
56103;DHT22;41970;48.774;9.280;2022-11-20T13:45:58;9.90;99.90
56103;DHT22;41970;48.774;9.280;2022-11-20T13:48:29;10.00;99.90
56103;DHT22;41970;48.774;9.280;2022-11-20T13:51:07;9.90;99.90
56103;DHT22;41970;48.774;9.280;2022-11-20T14:01:55;9.70;99.90
56103;DHT22;41970;48.774;9.280;2022-11-20T14:04:35;9.60;99.90
56103;DHT22;41970;48.774;9.280;2022-11-20T14:07:05;9.50;99.90
56103;DHT22;41970;48.774;9.280;2022-11-20T14:09:33;9.70;99.90
56103;DHT22;41970;48.774;9.280;2022-11-20T14:12:00;9.70;99.90
56103;DHT22;41970;48.774;9.280;2022-11-20T14:14:28;9.60;99.90
56103;DHT22;41970;48.774;9.280;2022-11-20T14:17:31;9.50;99.90
56103;DHT22;41970;48.774;9.280;2022-11-20T14:20:06;9.40;99.90
56103;DHT22;41970;48.774;9.280;2022-11-20T14:22:32;9.40;99.90
56103;DHT22;41970;48.774;9.280;2022-11-20T14:27:51;9.50;99.90
56103;DHT22;41970;48.774;9.280;2022-11-20T14:30:23;9.60;99.90
56103;DHT22;41970;48.774;9.280;2022-11-20T14:32:51;9.70;99.90
56103;DHT22;41970;48.774;9.280;2022-11-20T14:35:26;9.70;99.90
56103;DHT22;41970;48.774;9.280;2022-11-20T14:37:54;9.60;99.90
56103;DHT22;41970;48.774;9.280;2022-11-20T14:40:27;9.60;99.90
56103;DHT22;41970;48.774;9.280;2022-11-20T14:42:55;9.50;99.90
56103;DHT22;41970;48.774;9.280;2022-11-20T14:45:22;9.50;99.90
56103;DHT22;41970;48.774;9.280;2022-11-20T14:47:49;9.50;99.90
56103;DHT22;41970;48.774;9.280;2022-11-20T14:50:26;9.50;99.90
56103;DHT22;41970;48.774;9.280;2022-11-20T14:52:57;9.50;99.90
56103;DHT22;41970;48.774;9.280;2022-11-20T14:55:34;9.50;99.90
56103;DHT22;41970;48.774;9.280;2022-11-20T14:58:26;9.50;99.90
56103;DHT22;41970;48.774;9.280;2022-11-20T15:00:55;9.50;99.90
56103;DHT22;41970;48.774;9.280;2022-11-20T15:03:22;9.40;99.90
56103;DHT22;41970;48.774;9.280;2022-11-20T15:05:49;9.40;99.90
56103;DHT22;41970;48.774;9.280;2022-11-20T15:08:16;9.40;99.90
56103;DHT22;41970;48.774;9.280;2022-11-20T15:10:50;9.40;99.90
56103;DHT22;41970;48.774;9.280;2022-11-20T15:16:19;9.50;99.90
56103;DHT22;41970;48.774;9.280;2022-11-20T15:18:46;9.50;99.90
56103;DHT22;41970;48.774;9.280;2022-11-20T15:21:15;9.50;99.90
56103;DHT22;41970;48.774;9.280;2022-11-20T15:23:42;9.30;99.90
56103;DHT22;41970;48.774;9.280;2022-11-20T15:26:09;9.20;99.90
56103;DHT22;41970;48.774;9.280;2022-11-20T15:28:39;9.10;99.90
56103;DHT22;41970;48.774;9.280;2022-11-20T15:31:06;9.10;99.90
56103;DHT22;41970;48.774;9.280;2022-11-20T15:33:33;9.20;99.90
56103;DHT22;41970;48.774;9.280;2022-11-20T15:35:59;9.20;99.90
56103;DHT22;41970;48.774;9.280;2022-11-20T15:38:25;9.10;99.90
56103;DHT22;41970;48.774;9.280;2022-11-20T15:40:51;8.80;99.90
56103;DHT22;41970;48.774;9.280;2022-11-20T15:43:17;8.70;99.90
56103;DHT22;41970;48.774;9.280;2022-11-20T15:45:45;8.70;99.90
56103;DHT22;41970;48.774;9.280;2022-11-20T15:48:24;8.80;99.90
56103;DHT22;41970;48.774;9.280;2022-11-20T15:50:59;8.70;99.90
56103;DHT22;41970;48.774;9.280;2022-11-20T15:53:27;8.60;99.90
56103;DHT22;41970;48.774;9.280;2022-11-20T15:55:53;8.60;99.90
56103;DHT22;41970;48.774;9.280;2022-11-20T15:58:19;8.50;99.90
56103;DHT22;41970;48.774;9.280;2022-11-20T16:00:45;8.50;99.90
56103;DHT22;41970;48.774;9.280;2022-11-20T16:03:12;8.50;99.90
56103;DHT22;41970;48.774;9.280;2022-11-20T16:05:38;8.60;99.90
56103;DHT22;41970;48.774;9.280;2022-11-20T16:08:04;8.60;99.90
56103;DHT22;41970;48.774;9.280;2022-11-20T16:10:30;8.50;99.90
56103;DHT22;41970;48.774;9.280;2022-11-20T16:12:56;8.50;99.90
56103;DHT22;41970;48.774;9.280;2022-11-20T16:15:40;8.40;99.90
56103;DHT22;41970;48.774;9.280;2022-11-20T16:18:15;8.50;99.90
56103;DHT22;41970;48.774;9.280;2022-11-20T16:20:42;8.40;99.90
56103;DHT22;41970;48.774;9.280;2022-11-20T16:23:08;8.40;99.90
56103;DHT22;41970;48.774;9.280;2022-11-20T16:25:34;8.40;99.90
56103;DHT22;41970;48.774;9.280;2022-11-20T16:28:00;8.40;99.90
56103;DHT22;41970;48.774;9.280;2022-11-20T16:30:26;8.40;99.90
56103;DHT22;41970;48.774;9.280;2022-11-20T16:32:52;8.40;99.90
56103;DHT22;41970;48.774;9.280;2022-11-20T16:35:18;8.40;99.90
56103;DHT22;41970;48.774;9.280;2022-11-20T16:37:44;8.30;99.90
56103;DHT22;41970;48.774;9.280;2022-11-20T16:40:11;8.40;99.90
56103;DHT22;41970;48.774;9.280;2022-11-20T16:42:37;8.50;99.90
56103;DHT22;41970;48.774;9.280;2022-11-20T16:45:04;8.50;99.90
56103;DHT22;41970;48.774;9.280;2022-11-20T16:47:36;8.40;99.90
56103;DHT22;41970;48.774;9.280;2022-11-20T16:50:03;8.50;99.90
56103;DHT22;41970;48.774;9.280;2022-11-20T16:52:30;8.60;99.90
56103;DHT22;41970;48.774;9.280;2022-11-20T16:54:59;8.60;99.90
56103;DHT22;41970;48.774;9.280;2022-11-20T16:57:29;8.50;99.90
56103;DHT22;41970;48.774;9.280;2022-11-20T16:59:57;8.60;99.90
56103;DHT22;41970;48.774;9.280;2022-11-20T17:02:23;8.60;99.90
56103;DHT22;41970;48.774;9.280;2022-11-20T17:04:51;8.60;99.90
56103;DHT22;41970;48.774;9.280;2022-11-20T17:07:17;8.60;99.90
56103;DHT22;41970;48.774;9.280;2022-11-20T17:09:43;8.60;99.90
56103;DHT22;41970;48.774;9.280;2022-11-20T17:12:09;8.60;99.90
56103;DHT22;41970;48.774;9.280;2022-11-20T17:14:35;8.60;99.90
56103;DHT22;41970;48.774;9.280;2022-11-20T17:17:01;8.70;99.90
56103;DHT22;41970;48.774;9.280;2022-11-20T17:19:27;8.60;99.90